sensor_id;sensor_type;location;lat;lon;timestamp;P1;durP1;ratioP1;P2;durP2;ratioP2
31724;SDS011;18306;40.960;14.836;2023-01-19T00:01:39;2.30;;;0.60;;
31724;SDS011;18306;40.960;14.836;2023-01-19T00:04:06;1.50;;;0.45;;
31724;SDS011;18306;40.960;14.836;2023-01-19T00:06:34;2.30;;;0.43;;
31724;SDS011;18306;40.960;14.836;2023-01-19T00:09:03;1.42;;;0.65;;
31724;SDS011;18306;40.960;14.836;2023-01-19T00:11:31;4.35;;;1.17;;
31724;SDS011;18306;40.960;14.836;2023-01-19T00:13:58;4.75;;;0.70;;
31724;SDS011;18306;40.960;14.836;2023-01-19T00:16:25;3.10;;;0.47;;
31724;SDS011;18306;40.960;14.836;2023-01-19T00:18:52;6.07;;;0.85;;
31724;SDS011;18306;40.960;14.836;2023-01-19T00:21:23;4.32;;;0.90;;
31724;SDS011;18306;40.960;14.836;2023-01-19T00:23:57;2.10;;;0.45;;
31724;SDS011;18306;40.960;14.836;2023-01-19T00:26:24;0.32;;;0.22;;
31724;SDS011;18306;40.960;14.836;2023-01-19T00:28:51;0.28;;;0.28;;
31724;SDS011;18306;40.960;14.836;2023-01-19T00:31:18;1.40;;;0.35;;
31724;SDS011;18306;40.960;14.836;2023-01-19T00:33:46;0.45;;;0.17;;
31724;SDS011;18306;40.960;14.836;2023-01-19T00:36:14;0.52;;;0.15;;
31724;SDS011;18306;40.960;14.836;2023-01-19T00:38:42;0.28;;;0.28;;
31724;SDS011;18306;40.960;14.836;2023-01-19T00:41:09;2.13;;;0.40;;
31724;SDS011;18306;40.960;14.836;2023-01-19T00:43:35;0.60;;;0.35;;
31724;SDS011;18306;40.960;14.836;2023-01-19T00:46:02;0.70;;;0.15;;
31724;SDS011;18306;40.960;14.836;2023-01-19T00:48:29;0.82;;;0.20;;
31724;SDS011;18306;40.960;14.836;2023-01-19T00:50:57;0.63;;;0.50;;
31724;SDS011;18306;40.960;14.836;2023-01-19T00:53:25;0.30;;;0.22;;
31724;SDS011;18306;40.960;14.836;2023-01-19T00:55:54;0.22;;;0.22;;
31724;SDS011;18306;40.960;14.836;2023-01-19T00:58:21;7.75;;;0.55;;
31724;SDS011;18306;40.960;14.836;2023-01-19T01:00:48;1.08;;;0.20;;
31724;SDS011;18306;40.960;14.836;2023-01-19T01:03:15;0.88;;;0.10;;
31724;SDS011;18306;40.960;14.836;2023-01-19T01:05:42;2.60;;;0.20;;
31724;SDS011;18306;40.960;14.836;2023-01-19T01:08:08;3.70;;;0.35;;
31724;SDS011;18306;40.960;14.836;2023-01-19T01:10:40;0.00;;;0.00;;
31724;SDS011;18306;40.960;14.836;2023-01-19T01:13:18;0.82;;;0.10;;
31724;SDS011;18306;40.960;14.836;2023-01-19T01:15:56;0.17;;;0.17;;
31724;SDS011;18306;40.960;14.836;2023-01-19T01:18:37;0.10;;;0.10;;
31724;SDS011;18306;40.960;14.836;2023-01-19T01:21:19;0.40;;;0.10;;
31724;SDS011;18306;40.960;14.836;2023-01-19T01:23:55;0.17;;;0.17;;
31724;SDS011;18306;40.960;14.836;2023-01-19T01:26:33;0.52;;;0.13;;
31724;SDS011;18306;40.960;14.836;2023-01-19T01:29:11;0.17;;;0.17;;
31724;SDS011;18306;40.960;14.836;2023-01-19T01:31:39;0.13;;;0.10;;
31724;SDS011;18306;40.960;14.836;2023-01-19T01:34:06;2.40;;;0.20;;
31724;SDS011;18306;40.960;14.836;2023-01-19T01:36:33;0.17;;;0.03;;
31724;SDS011;18306;40.960;14.836;2023-01-19T01:39:01;3.13;;;0.17;;
31724;SDS011;18306;40.960;14.836;2023-01-19T01:41:29;1.38;;;0.30;;
31724;SDS011;18306;40.960;14.836;2023-01-19T01:43:59;0.85;;;0.25;;
31724;SDS011;18306;40.960;14.836;2023-01-19T01:46:30;0.73;;;0.43;;
31724;SDS011;18306;40.960;14.836;2023-01-19T01:49:04;1.50;;;0.47;;
31724;SDS011;18306;40.960;14.836;2023-01-19T01:51:46;0.00;;;0.00;;
31724;SDS011;18306;40.960;14.836;2023-01-19T01:54:26;0.57;;;0.30;;
31724;SDS011;18306;40.960;14.836;2023-01-19T01:57:00;0.10;;;0.00;;
31724;SDS011;18306;40.960;14.836;2023-01-19T01:59:32;0.75;;;0.30;;
31724;SDS011;18306;40.960;14.836;2023-01-19T02:02:05;0.30;;;0.20;;
31724;SDS011;18306;40.960;14.836;2023-01-19T02:04:56;2.30;;;0.63;;
31724;SDS011;18306;40.960;14.836;2023-01-19T02:07:40;1.30;;;0.35;;
31724;SDS011;18306;40.960;14.836;2023-01-19T02:10:31;1.10;;;0.25;;
31724;SDS011;18306;40.960;14.836;2023-01-19T02:13:17;0.75;;;0.15;;
31724;SDS011;18306;40.960;14.836;2023-01-19T02:15:48;1.65;;;0.17;;
31724;SDS011;18306;40.960;14.836;2023-01-19T02:18:17;0.30;;;0.30;;
31724;SDS011;18306;40.960;14.836;2023-01-19T02:21:30;1.55;;;0.40;;
31724;SDS011;18306;40.960;14.836;2023-01-19T02:26:13;0.28;;;0.28;;
31724;SDS011;18306;40.960;14.836;2023-01-19T02:28:45;1.67;;;0.40;;
31724;SDS011;18306;40.960;14.836;2023-01-19T02:31:16;0.28;;;0.10;;
31724;SDS011;18306;40.960;14.836;2023-01-19T02:33:43;3.67;;;0.15;;
31724;SDS011;18306;40.960;14.836;2023-01-19T02:36:11;2.42;;;0.40;;
31724;SDS011;18306;40.960;14.836;2023-01-19T02:38:40;0.00;;;0.00;;
31724;SDS011;18306;40.960;14.836;2023-01-19T02:41:10;0.43;;;0.00;;
31724;SDS011;18306;40.960;14.836;2023-01-19T02:43:40;0.00;;;0.00;;
31724;SDS011;18306;40.960;14.836;2023-01-19T02:46:08;1.02;;;0.08;;
31724;SDS011;18306;40.960;14.836;2023-01-19T02:48:36;0.40;;;0.10;;
31724;SDS011;18306;40.960;14.836;2023-01-19T02:51:07;0.65;;;0.10;;
31724;SDS011;18306;40.960;14.836;2023-01-19T03:05:30;1.23;;;0.28;;
31724;SDS011;18306;40.960;14.836;2023-01-19T03:11:13;0.65;;;0.20;;
31724;SDS011;18306;40.960;14.836;2023-01-19T03:16:18;0.08;;;0.00;;
31724;SDS011;18306;40.960;14.836;2023-01-19T03:18:54;0.10;;;0.10;;
31724;SDS011;18306;40.960;14.836;2023-01-19T03:21:27;0.00;;;0.00;;
31724;SDS011;18306;40.960;14.836;2023-01-19T03:23:57;0.63;;;0.55;;
31724;SDS011;18306;40.960;14.836;2023-01-19T03:26:28;2.15;;;0.60;;
31724;SDS011;18306;40.960;14.836;2023-01-19T03:28:59;3.67;;;0.20;;
31724;SDS011;18306;40.960;14.836;2023-01-19T03:31:29;2.92;;;1.15;;
31724;SDS011;18306;40.960;14.836;2023-01-19T03:34:02;0.17;;;0.17;;
31724;SDS011;18306;40.960;14.836;2023-01-19T03:36:39;0.00;;;0.00;;
31724;SDS011;18306;40.960;14.836;2023-01-19T03:39:13;10.27;;;1.52;;
31724;SDS011;18306;40.960;14.836;2023-01-19T03:41:47;7.35;;;2.38;;
31724;SDS011;18306;40.960;14.836;2023-01-19T03:44:17;4.55;;;0.80;;
31724;SDS011;18306;40.960;14.836;2023-01-19T03:46:44;2.05;;;0.50;;
31724;SDS011;18306;40.960;14.836;2023-01-19T03:49:13;0.85;;;0.10;;
31724;SDS011;18306;40.960;14.836;2023-01-19T03:51:40;0.50;;;0.20;;
31724;SDS011;18306;40.960;14.836;2023-01-19T03:54:08;0.20;;;0.13;;
31724;SDS011;18306;40.960;14.836;2023-01-19T03:56:36;0.17;;;0.17;;
31724;SDS011;18306;40.960;14.836;2023-01-19T03:59:03;0.10;;;0.10;;
31724;SDS011;18306;40.960;14.836;2023-01-19T04:01:33;0.10;;;0.00;;
31724;SDS011;18306;40.960;14.836;2023-01-19T04:04:00;2.38;;;0.10;;
31724;SDS011;18306;40.960;14.836;2023-01-19T04:06:27;0.60;;;0.20;;
31724;SDS011;18306;40.960;14.836;2023-01-19T04:08:54;0.20;;;0.20;;
31724;SDS011;18306;40.960;14.836;2023-01-19T04:11:21;0.20;;;0.15;;
31724;SDS011;18306;40.960;14.836;2023-01-19T04:13:48;0.65;;;0.17;;
31724;SDS011;18306;40.960;14.836;2023-01-19T04:16:15;0.20;;;0.10;;
31724;SDS011;18306;40.960;14.836;2023-01-19T04:18:45;0.15;;;0.15;;
31724;SDS011;18306;40.960;14.836;2023-01-19T04:21:13;0.20;;;0.20;;
31724;SDS011;18306;40.960;14.836;2023-01-19T04:23:41;2.17;;;0.25;;
31724;SDS011;18306;40.960;14.836;2023-01-19T04:26:09;0.35;;;0.35;;
31724;SDS011;18306;40.960;14.836;2023-01-19T04:28:36;0.57;;;0.20;;
31724;SDS011;18306;40.960;14.836;2023-01-19T04:31:04;2.92;;;0.88;;
31724;SDS011;18306;40.960;14.836;2023-01-19T04:33:32;3.55;;;1.00;;
31724;SDS011;18306;40.960;14.836;2023-01-19T04:36:00;1.35;;;0.60;;
31724;SDS011;18306;40.960;14.836;2023-01-19T04:38:29;1.77;;;0.80;;
31724;SDS011;18306;40.960;14.836;2023-01-19T04:40:56;1.10;;;0.75;;
31724;SDS011;18306;40.960;14.836;2023-01-19T04:43:23;1.23;;;0.75;;
31724;SDS011;18306;40.960;14.836;2023-01-19T04:45:50;4.88;;;0.88;;
31724;SDS011;18306;40.960;14.836;2023-01-19T04:48:17;0.90;;;0.40;;
31724;SDS011;18306;40.960;14.836;2023-01-19T04:50:45;1.08;;;0.43;;
31724;SDS011;18306;40.960;14.836;2023-01-19T04:53:13;0.57;;;0.20;;
31724;SDS011;18306;40.960;14.836;2023-01-19T04:55:41;3.88;;;0.50;;
31724;SDS011;18306;40.960;14.836;2023-01-19T04:58:08;0.57;;;0.20;;
31724;SDS011;18306;40.960;14.836;2023-01-19T05:00:35;1.73;;;0.65;;
31724;SDS011;18306;40.960;14.836;2023-01-19T05:03:02;0.95;;;0.25;;
31724;SDS011;18306;40.960;14.836;2023-01-19T05:05:29;1.20;;;0.50;;
31724;SDS011;18306;40.960;14.836;2023-01-19T05:07:58;0.35;;;0.30;;
31724;SDS011;18306;40.960;14.836;2023-01-19T05:10:25;2.63;;;0.40;;
31724;SDS011;18306;40.960;14.836;2023-01-19T05:12:53;1.08;;;0.73;;
31724;SDS011;18306;40.960;14.836;2023-01-19T05:15:20;18.77;;;11.48;;
31724;SDS011;18306;40.960;14.836;2023-01-19T05:17:48;19.27;;;9.90;;
31724;SDS011;18306;40.960;14.836;2023-01-19T05:20:14;5.47;;;3.90;;
31724;SDS011;18306;40.960;14.836;2023-01-19T05:22:47;4.30;;;3.22;;
31724;SDS011;18306;40.960;14.836;2023-01-19T05:25:15;4.22;;;2.17;;
31724;SDS011;18306;40.960;14.836;2023-01-19T05:27:43;2.80;;;1.88;;
31724;SDS011;18306;40.960;14.836;2023-01-19T05:30:10;2.70;;;1.42;;
31724;SDS011;18306;40.960;14.836;2023-01-19T05:32:38;2.15;;;0.70;;
31724;SDS011;18306;40.960;14.836;2023-01-19T05:35:05;0.65;;;0.30;;
31724;SDS011;18306;40.960;14.836;2023-01-19T05:37:33;4.65;;;0.30;;
31724;SDS011;18306;40.960;14.836;2023-01-19T05:40:00;0.43;;;0.10;;
31724;SDS011;18306;40.960;14.836;2023-01-19T05:42:27;1.38;;;0.55;;
31724;SDS011;18306;40.960;14.836;2023-01-19T05:44:54;0.20;;;0.20;;
31724;SDS011;18306;40.960;14.836;2023-01-19T05:47:21;0.30;;;0.20;;
31724;SDS011;18306;40.960;14.836;2023-01-19T05:49:48;4.22;;;0.60;;
31724;SDS011;18306;40.960;14.836;2023-01-19T05:52:15;1.27;;;0.50;;
31724;SDS011;18306;40.960;14.836;2023-01-19T05:54:42;0.80;;;0.30;;
31724;SDS011;18306;40.960;14.836;2023-01-19T05:57:09;0.70;;;0.43;;
31724;SDS011;18306;40.960;14.836;2023-01-19T05:59:37;6.38;;;0.88;;
31724;SDS011;18306;40.960;14.836;2023-01-19T06:02:06;7.13;;;4.10;;
31724;SDS011;18306;40.960;14.836;2023-01-19T06:04:33;2.72;;;1.13;;
31724;SDS011;18306;40.960;14.836;2023-01-19T06:07:01;1.55;;;0.75;;
31724;SDS011;18306;40.960;14.836;2023-01-19T06:09:28;3.55;;;0.60;;
31724;SDS011;18306;40.960;14.836;2023-01-19T06:11:58;1.92;;;0.47;;
31724;SDS011;18306;40.960;14.836;2023-01-19T06:14:27;1.40;;;0.60;;
31724;SDS011;18306;40.960;14.836;2023-01-19T06:16:54;4.95;;;0.68;;
31724;SDS011;18306;40.960;14.836;2023-01-19T06:19:21;1.15;;;0.95;;
31724;SDS011;18306;40.960;14.836;2023-01-19T06:21:48;0.63;;;0.57;;
31724;SDS011;18306;40.960;14.836;2023-01-19T06:24:17;0.90;;;0.75;;
31724;SDS011;18306;40.960;14.836;2023-01-19T06:26:44;1.73;;;0.98;;
31724;SDS011;18306;40.960;14.836;2023-01-19T06:29:11;1.65;;;0.80;;
31724;SDS011;18306;40.960;14.836;2023-01-19T06:31:39;1.60;;;0.70;;
31724;SDS011;18306;40.960;14.836;2023-01-19T06:34:07;7.15;;;2.85;;
31724;SDS011;18306;40.960;14.836;2023-01-19T06:36:35;30.70;;;19.33;;
31724;SDS011;18306;40.960;14.836;2023-01-19T06:39:03;4.15;;;2.67;;
31724;SDS011;18306;40.960;14.836;2023-01-19T06:41:31;5.35;;;1.48;;
31724;SDS011;18306;40.960;14.836;2023-01-19T06:43:59;12.05;;;3.28;;
31724;SDS011;18306;40.960;14.836;2023-01-19T06:46:26;8.27;;;4.35;;
31724;SDS011;18306;40.960;14.836;2023-01-19T06:48:53;6.55;;;2.53;;
31724;SDS011;18306;40.960;14.836;2023-01-19T06:51:21;4.93;;;1.80;;
31724;SDS011;18306;40.960;14.836;2023-01-19T06:53:48;1.00;;;0.90;;
31724;SDS011;18306;40.960;14.836;2023-01-19T06:56:16;6.18;;;3.33;;
31724;SDS011;18306;40.960;14.836;2023-01-19T06:58:43;6.05;;;2.08;;
31724;SDS011;18306;40.960;14.836;2023-01-19T07:01:12;4.68;;;1.70;;
31724;SDS011;18306;40.960;14.836;2023-01-19T07:03:40;1.95;;;1.20;;
31724;SDS011;18306;40.960;14.836;2023-01-19T07:06:08;2.20;;;1.27;;
31724;SDS011;18306;40.960;14.836;2023-01-19T07:08:35;1.80;;;1.08;;
31724;SDS011;18306;40.960;14.836;2023-01-19T07:11:04;5.00;;;1.65;;
31724;SDS011;18306;40.960;14.836;2023-01-19T07:13:34;3.17;;;1.73;;
31724;SDS011;18306;40.960;14.836;2023-01-19T07:16:06;2.88;;;1.63;;
31724;SDS011;18306;40.960;14.836;2023-01-19T07:18:34;2.72;;;1.58;;
31724;SDS011;18306;40.960;14.836;2023-01-19T07:21:02;4.32;;;1.45;;
31724;SDS011;18306;40.960;14.836;2023-01-19T07:23:30;1.52;;;1.23;;
31724;SDS011;18306;40.960;14.836;2023-01-19T07:26:00;6.22;;;1.73;;
31724;SDS011;18306;40.960;14.836;2023-01-19T07:28:27;3.20;;;1.48;;
31724;SDS011;18306;40.960;14.836;2023-01-19T07:30:56;1.02;;;0.90;;
31724;SDS011;18306;40.960;14.836;2023-01-19T07:33:23;2.92;;;1.30;;
31724;SDS011;18306;40.960;14.836;2023-01-19T07:35:51;5.40;;;1.73;;
31724;SDS011;18306;40.960;14.836;2023-01-19T07:38:19;1.60;;;1.40;;
31724;SDS011;18306;40.960;14.836;2023-01-19T07:40:46;1.45;;;1.30;;
31724;SDS011;18306;40.960;14.836;2023-01-19T07:43:13;1.48;;;1.33;;
31724;SDS011;18306;40.960;14.836;2023-01-19T07:45:41;2.78;;;1.92;;
31724;SDS011;18306;40.960;14.836;2023-01-19T07:48:09;2.03;;;1.60;;
31724;SDS011;18306;40.960;14.836;2023-01-19T07:50:36;7.75;;;1.80;;
31724;SDS011;18306;40.960;14.836;2023-01-19T07:53:04;2.10;;;1.63;;
31724;SDS011;18306;40.960;14.836;2023-01-19T07:55:32;4.22;;;1.60;;
31724;SDS011;18306;40.960;14.836;2023-01-19T07:57:59;3.00;;;1.85;;
31724;SDS011;18306;40.960;14.836;2023-01-19T08:00:29;3.25;;;1.77;;
31724;SDS011;18306;40.960;14.836;2023-01-19T08:02:57;3.88;;;1.75;;
31724;SDS011;18306;40.960;14.836;2023-01-19T08:05:26;5.78;;;2.75;;
31724;SDS011;18306;40.960;14.836;2023-01-19T08:07:56;4.85;;;2.63;;
31724;SDS011;18306;40.960;14.836;2023-01-19T08:10:24;4.45;;;2.20;;
31724;SDS011;18306;40.960;14.836;2023-01-19T08:12:53;3.83;;;2.15;;
31724;SDS011;18306;40.960;14.836;2023-01-19T08:15:21;6.32;;;2.70;;
31724;SDS011;18306;40.960;14.836;2023-01-19T08:17:57;5.75;;;2.75;;
31724;SDS011;18306;40.960;14.836;2023-01-19T08:20:30;11.82;;;2.65;;
31724;SDS011;18306;40.960;14.836;2023-01-19T08:23:02;4.97;;;2.80;;
31724;SDS011;18306;40.960;14.836;2023-01-19T08:25:33;7.10;;;2.85;;
31724;SDS011;18306;40.960;14.836;2023-01-19T08:28:03;21.77;;;4.68;;
31724;SDS011;18306;40.960;14.836;2023-01-19T08:30:31;8.05;;;3.65;;
31724;SDS011;18306;40.960;14.836;2023-01-19T08:32:58;5.95;;;2.95;;
31724;SDS011;18306;40.960;14.836;2023-01-19T08:35:29;7.25;;;2.85;;
31724;SDS011;18306;40.960;14.836;2023-01-19T08:37:57;25.60;;;8.38;;
31724;SDS011;18306;40.960;14.836;2023-01-19T08:40:27;10.85;;;3.53;;
31724;SDS011;18306;40.960;14.836;2023-01-19T08:42:58;7.28;;;2.85;;
31724;SDS011;18306;40.960;14.836;2023-01-19T08:45:29;9.32;;;2.80;;
31724;SDS011;18306;40.960;14.836;2023-01-19T08:48:06;11.77;;;8.25;;
31724;SDS011;18306;40.960;14.836;2023-01-19T08:50:35;9.02;;;2.65;;
31724;SDS011;18306;40.960;14.836;2023-01-19T08:53:03;15.20;;;2.63;;
31724;SDS011;18306;40.960;14.836;2023-01-19T08:55:33;6.35;;;2.63;;
31724;SDS011;18306;40.960;14.836;2023-01-19T08:58:02;8.90;;;3.55;;
31724;SDS011;18306;40.960;14.836;2023-01-19T09:00:31;7.28;;;2.65;;
31724;SDS011;18306;40.960;14.836;2023-01-19T09:03:00;5.55;;;2.33;;
31724;SDS011;18306;40.960;14.836;2023-01-19T09:05:29;13.93;;;2.05;;
31724;SDS011;18306;40.960;14.836;2023-01-19T09:08:01;3.25;;;1.85;;
31724;SDS011;18306;40.960;14.836;2023-01-19T09:10:29;4.07;;;1.63;;
31724;SDS011;18306;40.960;14.836;2023-01-19T09:13:04;4.57;;;1.42;;
31724;SDS011;18306;40.960;14.836;2023-01-19T09:15:33;6.78;;;1.65;;
31724;SDS011;18306;40.960;14.836;2023-01-19T09:18:06;3.05;;;1.35;;
31724;SDS011;18306;40.960;14.836;2023-01-19T09:20:41;6.57;;;1.55;;
31724;SDS011;18306;40.960;14.836;2023-01-19T09:23:10;1.88;;;0.98;;
31724;SDS011;18306;40.960;14.836;2023-01-19T09:25:40;8.27;;;1.77;;
31724;SDS011;18306;40.960;14.836;2023-01-19T09:28:08;8.13;;;2.05;;
31724;SDS011;18306;40.960;14.836;2023-01-19T09:30:43;4.97;;;1.58;;
31724;SDS011;18306;40.960;14.836;2023-01-19T09:33:13;3.13;;;1.52;;
31724;SDS011;18306;40.960;14.836;2023-01-19T09:35:41;12.65;;;1.92;;
31724;SDS011;18306;40.960;14.836;2023-01-19T09:38:10;5.75;;;1.95;;
31724;SDS011;18306;40.960;14.836;2023-01-19T09:40:41;5.75;;;1.38;;
31724;SDS011;18306;40.960;14.836;2023-01-19T09:45:48;6.70;;;1.50;;
31724;SDS011;18306;40.960;14.836;2023-01-19T09:51:01;3.95;;;1.42;;
31724;SDS011;18306;40.960;14.836;2023-01-19T09:53:38;8.10;;;1.83;;
31724;SDS011;18306;40.960;14.836;2023-01-19T09:56:12;7.32;;;1.52;;
31724;SDS011;18306;40.960;14.836;2023-01-19T09:58:42;3.63;;;1.13;;
31724;SDS011;18306;40.960;14.836;2023-01-19T10:04:06;4.72;;;1.50;;
31724;SDS011;18306;40.960;14.836;2023-01-19T10:06:37;12.27;;;1.85;;
31724;SDS011;18306;40.960;14.836;2023-01-19T10:09:08;13.10;;;2.13;;
31724;SDS011;18306;40.960;14.836;2023-01-19T10:11:50;6.65;;;1.98;;
31724;SDS011;18306;40.960;14.836;2023-01-19T10:14:26;9.55;;;1.55;;
31724;SDS011;18306;40.960;14.836;2023-01-19T10:17:11;13.07;;;2.13;;
31724;SDS011;18306;40.960;14.836;2023-01-19T10:19:46;4.15;;;2.00;;
31724;SDS011;18306;40.960;14.836;2023-01-19T10:22:19;11.15;;;2.08;;
31724;SDS011;18306;40.960;14.836;2023-01-19T10:24:51;2.60;;;1.17;;
31724;SDS011;18306;40.960;14.836;2023-01-19T10:27:28;4.43;;;1.48;;
31724;SDS011;18306;40.960;14.836;2023-01-19T10:29:56;4.95;;;1.48;;
31724;SDS011;18306;40.960;14.836;2023-01-19T10:32:25;7.75;;;2.33;;
31724;SDS011;18306;40.960;14.836;2023-01-19T10:34:55;2.60;;;1.65;;
31724;SDS011;18306;40.960;14.836;2023-01-19T10:37:29;5.57;;;1.65;;
31724;SDS011;18306;40.960;14.836;2023-01-19T10:42:35;2.88;;;1.30;;
31724;SDS011;18306;40.960;14.836;2023-01-19T10:45:16;10.90;;;1.67;;
31724;SDS011;18306;40.960;14.836;2023-01-19T10:47:45;4.25;;;1.38;;
31724;SDS011;18306;40.960;14.836;2023-01-19T10:50:30;5.63;;;1.67;;
31724;SDS011;18306;40.960;14.836;2023-01-19T10:53:02;3.58;;;1.75;;
31724;SDS011;18306;40.960;14.836;2023-01-19T10:55:35;10.48;;;2.05;;
31724;SDS011;18306;40.960;14.836;2023-01-19T10:58:06;8.15;;;2.00;;
31724;SDS011;18306;40.960;14.836;2023-01-19T11:00:55;9.13;;;1.63;;
31724;SDS011;18306;40.960;14.836;2023-01-19T11:03:45;17.23;;;2.33;;
31724;SDS011;18306;40.960;14.836;2023-01-19T11:08:44;6.30;;;1.23;;
31724;SDS011;18306;40.960;14.836;2023-01-19T11:11:13;10.55;;;2.35;;
31724;SDS011;18306;40.960;14.836;2023-01-19T11:13:40;9.80;;;2.33;;
31724;SDS011;18306;40.960;14.836;2023-01-19T11:16:24;9.50;;;1.45;;
31724;SDS011;18306;40.960;14.836;2023-01-19T11:18:54;6.45;;;1.63;;
31724;SDS011;18306;40.960;14.836;2023-01-19T11:21:26;7.35;;;1.65;;
31724;SDS011;18306;40.960;14.836;2023-01-19T11:23:56;4.07;;;1.98;;
31724;SDS011;18306;40.960;14.836;2023-01-19T11:26:43;2.35;;;1.55;;
31724;SDS011;18306;40.960;14.836;2023-01-19T11:31:47;17.15;;;6.80;;
31724;SDS011;18306;40.960;14.836;2023-01-19T11:34:32;20.35;;;7.10;;
31724;SDS011;18306;40.960;14.836;2023-01-19T11:37:01;13.13;;;5.82;;
31724;SDS011;18306;40.960;14.836;2023-01-19T11:39:43;5.10;;;2.25;;
31724;SDS011;18306;40.960;14.836;2023-01-19T11:42:13;7.90;;;4.03;;
31724;SDS011;18306;40.960;14.836;2023-01-19T11:47:45;20.33;;;7.38;;
31724;SDS011;18306;40.960;14.836;2023-01-19T11:50:24;11.07;;;4.65;;
31724;SDS011;18306;40.960;14.836;2023-01-19T11:53:00;16.55;;;8.48;;
31724;SDS011;18306;40.960;14.836;2023-01-19T11:58:22;7.82;;;5.13;;
31724;SDS011;18306;40.960;14.836;2023-01-19T12:00:53;12.80;;;6.90;;
31724;SDS011;18306;40.960;14.836;2023-01-19T12:03:32;11.82;;;6.68;;
31724;SDS011;18306;40.960;14.836;2023-01-19T12:06:11;15.65;;;8.00;;
31724;SDS011;18306;40.960;14.836;2023-01-19T12:08:44;17.63;;;7.32;;
31724;SDS011;18306;40.960;14.836;2023-01-19T12:11:26;10.95;;;5.38;;
31724;SDS011;18306;40.960;14.836;2023-01-19T12:14:18;16.73;;;6.30;;
31724;SDS011;18306;40.960;14.836;2023-01-19T12:17:06;11.50;;;4.85;;
31724;SDS011;18306;40.960;14.836;2023-01-19T12:19:47;11.43;;;6.38;;
31724;SDS011;18306;40.960;14.836;2023-01-19T12:22:21;13.25;;;4.68;;
31724;SDS011;18306;40.960;14.836;2023-01-19T12:24:51;12.40;;;5.57;;
31724;SDS011;18306;40.960;14.836;2023-01-19T12:27:40;10.43;;;3.78;;
31724;SDS011;18306;40.960;14.836;2023-01-19T12:30:20;9.27;;;4.28;;
31724;SDS011;18306;40.960;14.836;2023-01-19T12:36:02;14.38;;;3.70;;
31724;SDS011;18306;40.960;14.836;2023-01-19T12:38:55;11.80;;;4.07;;
31724;SDS011;18306;40.960;14.836;2023-01-19T12:41:45;21.23;;;8.52;;
31724;SDS011;18306;40.960;14.836;2023-01-19T12:44:15;10.50;;;4.65;;
31724;SDS011;18306;40.960;14.836;2023-01-19T12:55:39;16.42;;;5.57;;
31724;SDS011;18306;40.960;14.836;2023-01-19T13:13:26;42.33;;;21.55;;
31724;SDS011;18306;40.960;14.836;2023-01-19T13:24:05;26.58;;;8.27;;
31724;SDS011;18306;40.960;14.836;2023-01-19T13:26:35;21.50;;;9.88;;
31724;SDS011;18306;40.960;14.836;2023-01-19T13:29:30;15.83;;;5.73;;
31724;SDS011;18306;40.960;14.836;2023-01-19T13:35:18;8.60;;;3.83;;
31724;SDS011;18306;40.960;14.836;2023-01-19T13:37:50;8.35;;;2.78;;
31724;SDS011;18306;40.960;14.836;2023-01-19T13:40:26;26.70;;;10.50;;
31724;SDS011;18306;40.960;14.836;2023-01-19T13:43:02;19.05;;;7.15;;
31724;SDS011;18306;40.960;14.836;2023-01-19T13:45:38;16.23;;;4.80;;
31724;SDS011;18306;40.960;14.836;2023-01-19T13:48:13;69.72;;;26.95;;
31724;SDS011;18306;40.960;14.836;2023-01-19T13:50:56;74.65;;;27.05;;
31724;SDS011;18306;40.960;14.836;2023-01-19T13:53:34;33.80;;;13.13;;
31724;SDS011;18306;40.960;14.836;2023-01-19T13:56:17;16.05;;;6.13;;
31724;SDS011;18306;40.960;14.836;2023-01-19T13:59:02;45.42;;;20.42;;
31724;SDS011;18306;40.960;14.836;2023-01-19T14:01:44;16.05;;;9.85;;
31724;SDS011;18306;40.960;14.836;2023-01-19T14:04:31;18.25;;;7.30;;
31724;SDS011;18306;40.960;14.836;2023-01-19T14:07:05;13.13;;;6.65;;
31724;SDS011;18306;40.960;14.836;2023-01-19T14:13:28;13.30;;;7.03;;
31724;SDS011;18306;40.960;14.836;2023-01-19T14:16:16;11.98;;;7.63;;
31724;SDS011;18306;40.960;14.836;2023-01-19T14:19:13;3.22;;;2.47;;
31724;SDS011;18306;40.960;14.836;2023-01-19T14:21:41;23.50;;;12.15;;
31724;SDS011;18306;40.960;14.836;2023-01-19T14:26:47;28.92;;;10.45;;
31724;SDS011;18306;40.960;14.836;2023-01-19T14:29:30;46.13;;;17.52;;
31724;SDS011;18306;40.960;14.836;2023-01-19T14:32:28;64.75;;;21.75;;
31724;SDS011;18306;40.960;14.836;2023-01-19T14:37:43;17.35;;;7.72;;
31724;SDS011;18306;40.960;14.836;2023-01-19T14:40:22;7.03;;;3.38;;
31724;SDS011;18306;40.960;14.836;2023-01-19T14:42:59;14.82;;;4.13;;
31724;SDS011;18306;40.960;14.836;2023-01-19T14:45:35;4.85;;;2.95;;
31724;SDS011;18306;40.960;14.836;2023-01-19T14:48:19;5.28;;;1.90;;
31724;SDS011;18306;40.960;14.836;2023-01-19T14:50:49;3.63;;;1.97;;
31724;SDS011;18306;40.960;14.836;2023-01-19T14:53:32;6.38;;;3.35;;
31724;SDS011;18306;40.960;14.836;2023-01-19T14:56:04;3.67;;;1.83;;
31724;SDS011;18306;40.960;14.836;2023-01-19T14:58:34;95.03;;;38.00;;
31724;SDS011;18306;40.960;14.836;2023-01-19T15:01:07;113.93;;;41.53;;
31724;SDS011;18306;40.960;14.836;2023-01-19T15:03:40;130.32;;;53.80;;
31724;SDS011;18306;40.960;14.836;2023-01-19T15:06:13;146.05;;;57.50;;
31724;SDS011;18306;40.960;14.836;2023-01-19T15:08:52;106.43;;;46.22;;
31724;SDS011;18306;40.960;14.836;2023-01-19T15:11:31;17.67;;;7.10;;
31724;SDS011;18306;40.960;14.836;2023-01-19T15:14:07;11.70;;;5.85;;
31724;SDS011;18306;40.960;14.836;2023-01-19T15:16:44;44.70;;;18.65;;
31724;SDS011;18306;40.960;14.836;2023-01-19T15:19:15;53.75;;;21.08;;
31724;SDS011;18306;40.960;14.836;2023-01-19T15:21:43;58.65;;;24.02;;
31724;SDS011;18306;40.960;14.836;2023-01-19T15:24:12;21.42;;;8.18;;
31724;SDS011;18306;40.960;14.836;2023-01-19T15:26:40;64.72;;;34.60;;
31724;SDS011;18306;40.960;14.836;2023-01-19T15:29:21;29.23;;;18.30;;
31724;SDS011;18306;40.960;14.836;2023-01-19T15:31:55;22.15;;;14.15;;
31724;SDS011;18306;40.960;14.836;2023-01-19T15:34:22;22.80;;;13.02;;
31724;SDS011;18306;40.960;14.836;2023-01-19T15:36:49;17.88;;;9.18;;
31724;SDS011;18306;40.960;14.836;2023-01-19T15:39:16;13.07;;;4.75;;
31724;SDS011;18306;40.960;14.836;2023-01-19T15:41:43;10.30;;;5.43;;
31724;SDS011;18306;40.960;14.836;2023-01-19T15:44:10;4.07;;;2.60;;
31724;SDS011;18306;40.960;14.836;2023-01-19T15:46:37;24.65;;;8.18;;
31724;SDS011;18306;40.960;14.836;2023-01-19T15:49:04;5.10;;;3.35;;
31724;SDS011;18306;40.960;14.836;2023-01-19T15:51:32;21.13;;;3.58;;
31724;SDS011;18306;40.960;14.836;2023-01-19T15:53:59;4.15;;;2.70;;
31724;SDS011;18306;40.960;14.836;2023-01-19T15:56:29;7.50;;;3.75;;
31724;SDS011;18306;40.960;14.836;2023-01-19T15:58:57;9.02;;;3.47;;
31724;SDS011;18306;40.960;14.836;2023-01-19T16:01:25;7.80;;;3.47;;
31724;SDS011;18306;40.960;14.836;2023-01-19T16:04:03;11.43;;;3.92;;
31724;SDS011;18306;40.960;14.836;2023-01-19T16:06:32;7.03;;;3.25;;
31724;SDS011;18306;40.960;14.836;2023-01-19T16:08:59;5.78;;;3.13;;
31724;SDS011;18306;40.960;14.836;2023-01-19T16:11:30;8.23;;;3.63;;
31724;SDS011;18306;40.960;14.836;2023-01-19T16:13:58;7.28;;;3.42;;
31724;SDS011;18306;40.960;14.836;2023-01-19T16:16:25;4.20;;;2.55;;
31724;SDS011;18306;40.960;14.836;2023-01-19T16:18:53;8.80;;;3.63;;
31724;SDS011;18306;40.960;14.836;2023-01-19T16:21:20;9.38;;;4.28;;
31724;SDS011;18306;40.960;14.836;2023-01-19T16:23:48;6.10;;;3.15;;
31724;SDS011;18306;40.960;14.836;2023-01-19T16:26:23;9.77;;;3.22;;